• Join FlightAware (Why Join?)
  • Login
  • US Flag 
05:06PM EDT


 

Airport Tracker/Info


-or-


 

Live Flight TrackerFlight Track Log ✈ C-GRDF ✈ 13-Jun-2013 ✈ CYSL - CYFC

Flight Track Log - Related Links

Times and Time Zones

All times are in EDT time to prevent confusion due to time zone crossing. See the C-GRDF flight status page for this flight to view local times or setup timezone preferences in your user account.

Time Position Orientation Groundspeed Altitude Reporting Facility
EDT Latitude Longitude Course Direction KTS MPH feet Rate Location/Type
06:54PM 47.0667 -67.7667 146° Southeast 160 184 5,100  Level Moncton Center
06:55PM 47.0333 -67.7333 146° Southeast 170 196 7,800 2,700 Climbing Moncton Center
06:56PM 46.9833 -67.6833 146° Southeast 170 196 10,500 2,340 Climbing Moncton Center
06:57PM 46.9500 -67.6333 134° Southeast 190 219 12,500 1,920 Climbing Moncton Center
06:58PM 46.9000 -67.5833 146° Southeast 200 230 14,400 1,200 Climbing Moncton Center
06:59PM 46.8500 -67.5500 155° Southeast 220 253 15,000 300 Climbing Moncton Center
07:00PM 46.7833 -67.4833 146° Southeast 250 288 15,000  Level Moncton Center
07:01PM 46.7167 -67.4167 146° Southeast 270 311 15,000  Level Moncton Center
07:02PM 46.6500 -67.3500 146° Southeast 270 311 15,000  Level Moncton Center
07:03PM 46.6000 -67.3000 146° Southeast 270 311 15,000 -60 Level Moncton Center
07:04PM 46.5500 -67.2167 131° Southeast 270 311 14,900 -720 Descending Moncton Center
07:05PM 46.4833 -67.1667 153° Southeast 280 322 13,600 -1,260 Descending Moncton Center
07:06PM 46.4167 -67.1000 145° Southeast 280 322 12,400 -1,260 Descending Moncton Center
07:07PM 46.3500 -67.0333 145° Southeast 270 311 11,100 -1,440 Descending Moncton Center
07:08PM 46.3000 -66.9833 145° Southeast 270 311 9,600 -1,320 Descending Moncton Center
07:09PM 46.2333 -66.9167 145° Southeast 260 299 8,500 -1,200 Descending Moncton Center
07:10PM 46.1667 -66.8667 153° Southeast 250 288 7,300 -1,260 Descending Moncton Center
07:11PM 46.1167 -66.8167 145° Southeast 260 299 6,000 -1,140 Descending Moncton Center
07:12PM 46.0500 -66.7333 139° Southeast 240 276 5,100 -1,080 Descending Moncton Center
07:13PM 46.0000 -66.7167 167° South 220 253 3,900 -1,140 Descending Moncton Center
07:14PM 45.9500 -66.6833 155° Southeast 200 230 2,900 -900 Descending Moncton Center
07:15PM 45.9167 -66.6333 134° Southeast 180 207 2,100 -660 Descending Moncton Center
07:16PM 45.8833 -66.5833 134° Southeast 170 196 1,600 -540 Descending Moncton Center